createdAt,value
2022-09-06T00:01:58.418Z,19.20
2022-09-06T00:07:30.274Z,19.16
2022-09-06T00:13:01.920Z,19.03
2022-09-06T00:18:33.608Z,18.97
2022-09-06T00:24:05.488Z,18.90
2022-09-06T00:29:37.440Z,18.85
2022-09-06T00:35:09.029Z,18.78
2022-09-06T00:40:40.893Z,18.69
2022-09-06T00:46:12.702Z,18.68
2022-09-06T00:51:44.181Z,18.61
2022-09-06T00:57:15.955Z,18.58
2022-09-06T01:02:47.872Z,18.54
2022-09-06T01:08:19.680Z,18.50
2022-09-06T01:13:52.301Z,18.47
2022-09-06T01:19:24.125Z,18.44
2022-09-06T01:24:56.064Z,18.43
2022-09-06T01:30:27.460Z,18.37
2022-09-06T01:35:59.479Z,18.31
2022-09-06T01:41:31.343Z,18.25
2022-09-06T01:47:02.890Z,18.21
2022-09-06T01:52:34.724Z,18.19
2022-09-06T02:03:36.237Z,18.21
2022-09-06T02:09:07.910Z,18.17
2022-09-06T02:14:39.740Z,18.13
2022-09-06T02:20:11.383Z,18.03
2022-09-06T02:25:43.265Z,18.00
2022-09-06T02:31:15.010Z,17.88
2022-09-06T02:36:46.860Z,17.82
2022-09-06T02:42:18.602Z,17.74
2022-09-06T02:47:50.273Z,17.67
2022-09-06T02:53:22.287Z,17.55
2022-09-06T02:58:54.025Z,17.55
2022-09-06T03:04:25.898Z,17.54
2022-09-06T03:09:58.099Z,17.54
2022-09-06T03:15:29.637Z,17.48
2022-09-06T03:21:01.649Z,17.45
2022-09-06T03:26:33.681Z,17.35
2022-09-06T03:32:05.800Z,17.30
2022-09-06T03:37:37.622Z,17.24
2022-09-06T03:43:09.115Z,17.24
2022-09-06T03:48:41.187Z,17.22
2022-09-06T03:54:12.805Z,17.20
2022-09-06T03:59:44.890Z,17.19
2022-09-06T04:05:17.081Z,17.19
2022-09-06T04:10:49.228Z,17.16
2022-09-06T04:16:20.990Z,17.19
2022-09-06T04:21:52.577Z,17.19
2022-09-06T04:27:25.010Z,17.17
2022-09-06T04:32:56.626Z,17.20
2022-09-06T04:38:28.581Z,17.27
2022-09-06T04:44:00.273Z,17.33
2022-09-06T04:49:32.202Z,17.40
2022-09-06T04:55:03.897Z,17.50
2022-09-06T05:00:35.697Z,17.68
2022-09-06T05:06:07.342Z,18.46
2022-09-06T05:17:11.099Z,19.76
2022-09-06T05:22:42.901Z,19.82
2022-09-06T05:28:15.043Z,19.66
2022-09-06T05:33:46.995Z,19.87
2022-09-06T05:39:19.037Z,20.83
2022-09-06T05:44:50.874Z,20.97
2022-09-06T05:50:22.603Z,20.93
2022-09-06T05:55:54.798Z,20.96
2022-09-06T06:01:26.838Z,21.69
2022-09-06T06:06:58.588Z,21.80
2022-09-06T06:12:30.316Z,21.80
2022-09-06T06:18:02.354Z,21.89
2022-09-06T06:23:33.976Z,24.03
2022-09-06T06:29:06.251Z,25.33
2022-09-06T06:34:37.919Z,27.19
2022-09-06T06:40:10.015Z,27.62
2022-09-06T06:45:42.082Z,27.89
2022-09-06T06:51:13.524Z,28.26
2022-09-06T06:56:45.699Z,29.75
2022-09-06T07:02:17.520Z,30.66
2022-09-06T07:07:49.360Z,30.70
2022-09-06T07:13:23.251Z,30.29
2022-09-06T07:26:38.191Z,27.96
2022-09-06T07:37:41.750Z,26.86
2022-09-06T07:43:13.268Z,26.55
2022-09-06T07:48:45.212Z,25.96
2022-09-06T07:54:32.304Z,25.72
2022-09-06T07:59:48.700Z,25.38
2022-09-06T08:10:51.714Z,24.96
2022-09-06T08:16:23.249Z,24.98
2022-09-06T08:21:55.107Z,25.58
2022-09-06T08:27:27.218Z,25.69
2022-09-06T08:32:59.497Z,25.82
2022-09-06T08:38:30.950Z,26.03
2022-09-06T08:49:34.391Z,26.72
2022-09-06T08:55:06.308Z,27.01
2022-09-06T09:00:38.180Z,27.26
2022-09-06T09:06:10.165Z,27.99
2022-09-06T09:11:41.796Z,28.67
2022-09-06T09:17:13.255Z,30.08
2022-09-06T09:22:44.806Z,30.61
2022-09-06T09:28:16.440Z,30.77
2022-09-06T09:33:48.999Z,30.78
2022-09-06T09:39:20.591Z,30.70
2022-09-06T09:44:52.528Z,30.71
2022-09-06T09:50:24.021Z,30.58
2022-09-06T09:55:55.261Z,30.44
2022-09-06T10:01:26.996Z,30.26
2022-09-06T10:07:14.400Z,30.19
2022-09-06T10:12:30.912Z,30.23
2022-09-06T10:18:02.715Z,30.24
2022-09-06T10:29:05.697Z,30.29
2022-09-06T10:34:37.463Z,30.36
2022-09-06T10:40:09.397Z,30.41
2022-09-06T10:45:41.707Z,30.61
2022-09-06T10:51:13.545Z,30.63
2022-09-06T10:56:45.283Z,30.63
2022-09-06T11:02:17.414Z,30.61
2022-09-06T11:13:20.957Z,30.77
2022-09-06T11:18:52.657Z,30.89
2022-09-06T11:24:24.742Z,30.96
2022-09-06T11:29:56.860Z,31.12
2022-09-06T11:35:28.519Z,31.23
2022-09-06T11:41:00.234Z,31.46
2022-09-06T11:46:31.904Z,31.49
2022-09-06T11:52:03.214Z,31.51
2022-09-06T11:57:35.057Z,31.53
2022-09-06T12:08:38.736Z,31.67
2022-09-06T12:14:10.335Z,31.77
2022-09-06T12:19:44.339Z,31.83
2022-09-06T12:25:13.926Z,31.98
2022-09-06T12:30:45.953Z,32.12
2022-09-06T12:36:17.776Z,32.42
2022-09-06T12:41:49.341Z,32.55
2022-09-06T12:52:53.334Z,32.40
2022-09-06T12:58:24.834Z,32.42
2022-09-06T13:03:56.656Z,32.49
2022-09-06T13:09:28.496Z,32.64
2022-09-06T13:15:00.548Z,32.80
2022-09-06T13:20:32.441Z,33.08
2022-09-06T13:26:04.028Z,33.15
2022-09-06T13:31:35.874Z,33.21
2022-09-06T13:37:07.872Z,33.08
2022-09-06T13:42:39.427Z,32.94
2022-09-06T13:48:28.396Z,32.81
2022-09-06T13:53:43.021Z,32.77
2022-09-06T14:04:44.376Z,33.05
2022-09-06T14:10:16.312Z,33.04
2022-09-06T14:26:46.982Z,32.62
2022-09-06T14:32:22.365Z,32.46
2022-09-06T14:37:50.505Z,32.15
2022-09-06T14:43:22.261Z,32.04
2022-09-06T14:48:54.371Z,31.63
2022-09-06T14:54:29.274Z,31.46
2022-09-06T14:59:58.602Z,31.11
2022-09-06T15:05:30.509Z,31.01
2022-09-06T15:11:03.777Z,30.96
2022-09-06T15:16:35.603Z,30.94
2022-09-06T15:22:07.371Z,30.88
2022-09-06T15:27:39.134Z,30.82
2022-09-06T15:33:10.505Z,30.81
2022-09-06T15:44:11.505Z,30.73
2022-09-06T15:49:43.457Z,30.63
2022-09-06T15:55:15.271Z,30.36
2022-09-06T16:00:50.007Z,30.26
2022-09-06T16:06:26.901Z,30.16
2022-09-06T16:11:51.076Z,30.08
2022-09-06T16:28:22.424Z,29.69
2022-09-06T16:33:54.282Z,29.54
2022-09-06T16:39:25.813Z,29.16
2022-09-06T16:44:57.579Z,28.99
2022-09-06T16:50:29.465Z,28.68
2022-09-06T16:56:01.067Z,28.51
2022-09-06T17:01:33.071Z,28.30
2022-09-06T17:07:04.901Z,28.24
2022-09-06T17:12:37.453Z,28.13
2022-09-06T17:18:09.218Z,28.12
2022-09-06T17:34:39.742Z,27.86
2022-09-06T17:40:11.645Z,27.71
2022-09-06T17:45:43.238Z,27.43
2022-09-06T17:51:14.719Z,27.20
2022-09-06T17:56:46.479Z,26.88
2022-09-06T18:02:18.793Z,26.72
2022-09-06T18:07:50.641Z,26.43
2022-09-06T18:13:22.417Z,26.30
2022-09-06T18:21:14.447Z,0.00
2022-09-06T18:26:46.253Z,25.91
2022-09-06T18:37:49.734Z,25.64
2022-09-06T18:43:21.428Z,25.51
2022-09-06T18:48:53.127Z,25.31
2022-09-06T18:56:45.061Z,25.10
2022-09-06T19:02:17.114Z,25.10
2022-09-06T19:07:48.728Z,25.06
2022-09-06T19:13:20.670Z,25.03
2022-09-06T19:18:52.920Z,25.02
2022-09-06T19:29:56.655Z,24.95
2022-09-06T19:35:28.573Z,24.92
2022-09-06T19:41:00.210Z,24.79
2022-09-06T19:46:32.059Z,24.69
2022-09-06T19:52:03.618Z,24.52
2022-09-06T20:08:39.058Z,24.23
2022-09-06T20:14:11.181Z,24.13
2022-09-06T20:19:43.096Z,24.06
2022-09-06T20:25:14.892Z,23.91
2022-09-06T20:30:46.633Z,23.78
2022-09-06T20:36:20.787Z,23.62
2022-09-06T20:47:24.022Z,23.51
2022-09-06T20:52:55.664Z,23.48
2022-09-06T20:58:27.304Z,23.41
2022-09-06T21:03:59.078Z,23.37
2022-09-06T21:09:31.054Z,23.33
2022-09-06T21:20:34.529Z,23.27
2022-09-06T21:26:06.879Z,23.22
2022-09-06T21:31:38.942Z,23.14
2022-09-06T21:37:10.864Z,23.12
2022-09-06T21:42:42.651Z,23.06
2022-09-06T21:48:14.652Z,23.00
2022-09-06T21:53:46.232Z,22.92
2022-09-06T21:59:17.778Z,22.82
2022-09-06T22:04:49.377Z,22.69
2022-09-06T22:10:21.080Z,22.61
2022-09-06T22:15:52.980Z,22.47
2022-09-06T22:21:24.819Z,22.40
2022-09-06T22:26:56.732Z,22.27
2022-09-06T22:32:28.213Z,22.25
2022-09-06T22:38:00.177Z,22.24
2022-09-06T22:43:31.703Z,22.20
2022-09-06T22:49:03.563Z,22.07
2022-09-06T22:54:35.380Z,22.03
2022-09-06T23:00:07.129Z,21.91
2022-09-06T23:05:41.140Z,21.80
2022-09-06T23:11:12.894Z,21.68
2022-09-06T23:16:44.561Z,21.62
2022-09-06T23:22:16.620Z,21.52
2022-09-06T23:27:48.825Z,21.47
2022-09-06T23:38:52.026Z,21.24
2022-09-06T23:44:24.547Z,21.20
2022-09-06T23:49:57.983Z,21.18
2022-09-06T23:55:29.890Z,21.17
